• Join FlightAware (Why Join?)
  • Login
  • US Flag 
10:09AM EDT


 

Airport Tracker/Info


-or-


 

Live Flight TrackerFlight Track Log ✈ CSN6813 ✈ 29-Sep-2013 ✈ ZWWW / URC - ZWTN / HTN

Flight Track Log - Related Links

Times and Time Zones

All times are in EDT time to prevent confusion due to time zone crossing. See the CSN6813 flight status page for this flight to view local times or setup timezone preferences in your user account.

Time Position Orientation Groundspeed Altitude Reporting Facility
EDT Latitude Longitude Course Direction KTS MPH feet Rate Location/Type
04:26AM 43.8099 87.3503 223° Southwest  Level Estimated
04:27AM 43.7126 87.2267 223° Southwest  Level Estimated
04:28AM 43.6152 87.1035 222° Southwest  Level Estimated
04:29AM 43.5177 86.9808 222° Southwest  Level Estimated
04:30AM 43.4199 86.8584 222° Southwest  Level Estimated
04:31AM 43.3221 86.7364 222° Southwest  Level Estimated
04:32AM 43.2242 86.6148 222° Southwest  Level Estimated
04:33AM 43.1261 86.4936 222° Southwest  Level Estimated
04:34AM 43.0279 86.3728 222° Southwest  Level Estimated
04:35AM 42.9295 86.2524 222° Southwest  Level Estimated
04:36AM 42.8311 86.1323 222° Southwest  Level Estimated
04:37AM 42.7325 86.0127 222° Southwest  Level Estimated
04:38AM 42.6338 85.8934 222° Southwest  Level Estimated
04:39AM 42.5349 85.7745 222° Southwest  Level Estimated
04:40AM 42.4360 85.6560 221° Southwest  Level Estimated
04:41AM 42.3369 85.5378 221° Southwest  Level Estimated
04:42AM 42.2377 85.4200 221° Southwest  Level Estimated
04:43AM 42.1384 85.3026 221° Southwest  Level Estimated
04:44AM 42.0389 85.1856 221° Southwest  Level Estimated
04:45AM 41.9394 85.0689 221° Southwest  Level Estimated
04:46AM 41.8397 84.9526 221° Southwest  Level Estimated
04:47AM 41.7399 84.8366 221° Southwest  Level Estimated
04:48AM 41.6400 84.7210 221° Southwest  Level Estimated
04:49AM 41.5400 84.6058 221° Southwest  Level Estimated
04:50AM 41.4398 84.4909 221° Southwest  Level Estimated
04:51AM 41.3396 84.3764 221° Southwest  Level Estimated
04:52AM 41.2392 84.2623 221° Southwest  Level Estimated
04:53AM 41.1387 84.1484 220° Southwest  Level Estimated
04:54AM 41.0381 84.0350 220° Southwest  Level Estimated
04:55AM 40.9374 83.9218 220° Southwest  Level Estimated
04:56AM 40.8366 83.8091 220° Southwest  Level Estimated
04:57AM 40.7357 83.6966 220° Southwest  Level Estimated
04:58AM 40.6347 83.5845 220° Southwest  Level Estimated
04:59AM 40.5335 83.4728 220° Southwest  Level Estimated
05:00AM 40.4323 83.3613 220° Southwest  Level Estimated
05:01AM 40.3309 83.2503 220° Southwest  Level Estimated
05:02AM 40.2295 83.1395 220° Southwest  Level Estimated
05:03AM 40.1279 83.0291 220° Southwest  Level Estimated
05:04AM 40.0262 82.9190 220° Southwest  Level Estimated
05:05AM 39.9245 82.8092 220° Southwest  Level Estimated
05:06AM 39.8226 82.6998 220° Southwest  Level Estimated
05:07AM 39.7206 82.5907 219° Southwest  Level Estimated
05:08AM 39.6185 82.4819 219° Southwest  Level Estimated
05:09AM 39.5164 82.3734 219° Southwest  Level Estimated
05:10AM 39.4141 82.2653 219° Southwest  Level Estimated
05:11AM 39.3117 82.1574 219° Southwest  Level Estimated
05:12AM 39.2092 82.0499 219° Southwest  Level Estimated
05:13AM 39.1066 81.9427 219° Southwest  Level Estimated
05:14AM 39.0040 81.8358 219° Southwest  Level Estimated
05:15AM 38.9012 81.7293 219° Southwest  Level Estimated
05:16AM 38.7983 81.6230 219° Southwest  Level Estimated
05:17AM 38.6954 81.5170 219° Southwest  Level Estimated
05:18AM 38.5923 81.4114 219° Southwest  Level Estimated
05:19AM 38.4891 81.3060 219° Southwest  Level Estimated
05:20AM 38.3859 81.2009 219° Southwest  Level Estimated
05:21AM 38.2825 81.0962 219° Southwest  Level Estimated
05:22AM 38.1791 80.9917 218° Southwest  Level Estimated
05:23AM 38.0756 80.8876 218° Southwest  Level Estimated
05:24AM 37.9720 80.7837 218° Southwest  Level Estimated
05:25AM 37.8682 80.6801 218° Southwest  Level Estimated
05:26AM 37.7644 80.5768 218° Southwest  Level Estimated
05:27AM 37.6605 80.4738 218° Southwest  Level Estimated
05:28AM 37.5566 80.3711 218° Southwest  Level Estimated
05:29AM 37.4525 80.2687 218° Southwest  Level Estimated
05:30AM 37.3483 80.1666 218° Southwest  Level Estimated
05:31AM 37.2441 80.0647 218° Southwest  Level Estimated
05:32AM 37.1398 79.9631 218° Southwest  Level Estimated
05:33AM 37.0385 79.8649 218° Southwest  Level Estimated
05:34AM 37.0385 79.8649 50° Northeast  Level Estimated
05:35AM 37.0385 79.8649 50° Northeast  Level Estimated
05:36AM 37.0385 79.8649 50° Northeast  Level Estimated
05:37AM 37.0385 79.8649 50° Northeast  Level Estimated
05:38AM 37.0385 79.8649 50° Northeast  Level Estimated
05:39AM 37.0385 79.8649 50° Northeast  Level Estimated
05:40AM 37.0385 79.8649 50° Northeast  Level Estimated
05:41AM 37.0385 79.8649 50° Northeast  Level Estimated
05:42AM 37.0385 79.8649 50° Northeast  Level Estimated
05:43AM 37.0385 79.8649 50° Northeast  Level Estimated
05:44AM 37.0385 79.8649 50° Northeast  Level Estimated
05:45AM 37.0385 79.8649 50° Northeast  Level Estimated
05:46AM 37.0385 79.8649 50° Northeast  Level Estimated